Themis — 9V3558 — position and weather

sailwx.info

Track history (hours):
 
Tides and Currents Weather Stations Pressure Air Temp Water Temp Dewpoint Dewpoint Depression Visibility Wind Speed Wind Dir Waves Ship Positions

Themis

Last reported at 2017-Nov-20 00:31 UTC. Time now 2017-Nov-21 12:09 UTC.
Position N 34°37' E 135°11'.

Length 200 m; draft 9.4 m.

Type: Cargo ship. MMSI: 563220000.

Date/timePositionNaut miles runAvg speedWind from/ knotsBaromVisibWave heightAir tempDewpointWater temp
2017-Nov-20 00:31N 34°37' E 135°11'3 5.4
2017-Nov-20 00:01N 34°34' E 135°10'714.3
2017-Nov-19 23:30N 34°28' E 135°06'815.2
2017-Nov-19 23:00N 34°21' E 135°02'715.0
2017-Nov-19 22:30N 34°14' E 134°59'612.2
2017-Nov-19 22:00N 34°08' E 134°59'612.3
2017-Nov-19 21:31N 34°02' E 135°00'5 9.0
2017-Nov-19 21:00N 33°57' E 135°01'  
2017-Nov-16 04:40N 31°06' E 122°18'214.6
2017-Nov-16 04:30N 31°08' E 122°16'915.2
2017-Nov-16 03:56N 31°13' E 122°07'614.5
2017-Nov-16 03:31N 31°15' E 122°00'714.6
2017-Nov-16 03:00N 31°16' E 121°52'713.3
2017-Nov-16 02:30N 31°18' E 121°45'3 6.6
2017-Nov-16 02:01N 31°20' E 121°41'0 0.6
2017-Nov-16 01:29N 31°19' E 121°41'0 0.0
2017-Nov-16 00:53N 31°19' E 121°41'0 0.0
2017-Nov-16 00:29N 31°19' E 121°41'0 0.0
2017-Nov-15 23:56N 31°19' E 121°41'0 0.0
2017-Nov-15 23:29N 31°19' E 121°41'0 0.0
2017-Nov-15 22:59N 31°19' E 121°41'0 0.0
2017-Nov-15 22:29N 31°19' E 121°41'0 0.0
2017-Nov-15 21:59N 31°19' E 121°41'0 0.0
2017-Nov-15 21:29N 31°19' E 121°41'0 0.0
2017-Nov-15 20:59N 31°19' E 121°41'0 0.0
2017-Nov-15 20:26N 31°19' E 121°41'0 0.0
2017-Nov-15 19:59N 31°19' E 121°41'0 0.0
2017-Nov-15 19:29N 31°19' E 121°41'0 0.0
2017-Nov-15 18:59N 31°19' E 121°41'0 0.0
2017-Nov-15 18:30N 31°19' E 121°41'0 0.0
2017-Nov-15 17:59N 31°19' E 121°41'0 0.0
2017-Nov-15 17:29N 31°19' E 121°41'0 0.0
2017-Nov-15 16:59N 31°19' E 121°41'0 0.0
2017-Nov-15 16:29N 31°19' E 121°41'0 0.0
2017-Nov-15 15:59N 31°19' E 121°41'0 0.0
2017-Nov-15 15:29N 31°19' E 121°41'0 0.0
2017-Nov-15 14:59N 31°19' E 121°41'0 0.0
2017-Nov-15 14:29N 31°19' E 121°41'0 0.0
2017-Nov-15 13:59N 31°19' E 121°41'0 0.0
2017-Nov-15 13:30N 31°19' E 121°41'1 1.6
2017-Nov-15 13:00N 31°20' E 121°42'5 9.1
2017-Nov-15 12:30N 31°18' E 121°47'611.0
2017-Nov-15 12:00N 31°16' E 121°53'510.9
2017-Nov-15 11:30N 31°15' E 121°59'612.9
2017-Nov-15 11:00N 31°14' E 122°06'810.2
2017-Nov-15 10:13N 31°09' E 122°14'210.0
2017-Nov-15 09:58N 31°07' E 122°16'40114.9
2017-Nov-14 07:03N 37°48' E 121°55'119.2
2017-Nov-14 07:00N 37°47' E 121°54'918.8
2017-Nov-14 06:31N 37°46' E 121°42'917.9
2017-Nov-14 06:00N 37°42' E 121°32'713.5
2017-Nov-14 05:30N 37°36' E 121°27'4 7.0
2017-Nov-14 04:55N 37°34' E 121°23'0 0.0
2017-Nov-14 04:28N 37°34' E 121°23'0 0.0
2017-Nov-14 03:58N 37°34' E 121°23'0 0.0
2017-Nov-14 03:22N 37°34' E 121°23'0 0.0
2017-Nov-14 02:55N 37°34' E 121°23'0 0.0
2017-Nov-14 02:28N 37°34' E 121°23'0 0.0
2017-Nov-14 01:58N 37°34' E 121°23'0 0.0
2017-Nov-14 01:28N 37°34' E 121°23'0 0.0
2017-Nov-14 00:58N 37°34' E 121°23'0 0.0
2017-Nov-14 00:16N 37°34' E 121°23'0 0.0
2017-Nov-13 23:58N 37°34' E 121°23'0 0.0
2017-Nov-13 23:28N 37°34' E 121°23'0 0.0
2017-Nov-13 22:58N 37°34' E 121°23'0 0.0
2017-Nov-13 22:28N 37°34' E 121°23'0 0.0
2017-Nov-13 21:58N 37°34' E 121°23'0 0.0
2017-Nov-13 02:00N 37°34' E 121°23'2 3.3
2017-Nov-13 01:30N 37°35' E 121°25'3 5.4
2017-Nov-13 00:59N 37°36' E 121°27'4 7.3
2017-Nov-13 00:30N 37°40' E 121°29'2 4.1
2017-Nov-13 00:00N 37°41' E 121°31'0 0.5
2017-Nov-12 23:30N 37°42' E 121°30'0 0.8
2017-Nov-12 23:00N 37°41' E 121°31'0 0.3
2017-Nov-12 22:30N 37°42' E 121°31'2 3.8
2017-Nov-12 22:00N 37°43' E 121°33'3 5.0
2017-Nov-12 21:30N 37°44' E 121°36'3 6.9
2017-Nov-12 21:00N 37°45' E 121°40'4 7.5
2017-Nov-12 20:30N 37°47' E 121°44'4 8.7
2017-Nov-12 20:00N 37°48' E 121°49'5 9.1
2017-Nov-12 19:30N 37°50' E 121°54'711.0
2017-Nov-12 18:53N 37°52' E 122°02'511.5
2017-Nov-12 18:27N 37°54' E 122°08'  
Track history (hours):
 
Tides and Currents Weather Stations Pressure Air Temp Water Temp Dewpoint Dewpoint Depression Visibility Wind Speed Wind Dir Waves Ship Positions

Themis

Last reported at 2017-Nov-20 00:31 UTC. Time now 2017-Nov-21 12:09 UTC.
Position N 34°37' E 135°11'.

Length 200 m; draft 9.4 m.

Type: Cargo ship. MMSI: 563220000.

Date/timePositionNaut miles runAvg speedWind from/ knotsBaromVisibWave heightAir tempDewpointWater temp
2017-Nov-20 00:31N 34°37' E 135°11'3 5.4
2017-Nov-20 00:01N 34°34' E 135°10'714.3
2017-Nov-19 23:30N 34°28' E 135°06'815.2
2017-Nov-19 23:00N 34°21' E 135°02'715.0
2017-Nov-19 22:30N 34°14' E 134°59'612.2
2017-Nov-19 22:00N 34°08' E 134°59'612.3
2017-Nov-19 21:31N 34°02' E 135°00'5 9.0
2017-Nov-19 21:00N 33°57' E 135°01'  
2017-Nov-16 04:40N 31°06' E 122°18'214.6
2017-Nov-16 04:30N 31°08' E 122°16'915.2
2017-Nov-16 03:56N 31°13' E 122°07'614.5
2017-Nov-16 03:31N 31°15' E 122°00'714.6
2017-Nov-16 03:00N 31°16' E 121°52'713.3
2017-Nov-16 02:30N 31°18' E 121°45'3 6.6
2017-Nov-16 02:01N 31°20' E 121°41'0 0.6
2017-Nov-16 01:29N 31°19' E 121°41'0 0.0
2017-Nov-16 00:53N 31°19' E 121°41'0 0.0
2017-Nov-16 00:29N 31°19' E 121°41'0 0.0
2017-Nov-15 23:56N 31°19' E 121°41'0 0.0
2017-Nov-15 23:29N 31°19' E 121°41'0 0.0
2017-Nov-15 22:59N 31°19' E 121°41'0 0.0
2017-Nov-15 22:29N 31°19' E 121°41'0 0.0
2017-Nov-15 21:59N 31°19' E 121°41'0 0.0
2017-Nov-15 21:29N 31°19' E 121°41'0 0.0
2017-Nov-15 20:59N 31°19' E 121°41'0 0.0
2017-Nov-15 20:26N 31°19' E 121°41'0 0.0
2017-Nov-15 19:59N 31°19' E 121°41'0 0.0
2017-Nov-15 19:29N 31°19' E 121°41'0 0.0
2017-Nov-15 18:59N 31°19' E 121°41'0 0.0
2017-Nov-15 18:30N 31°19' E 121°41'0 0.0
2017-Nov-15 17:59N 31°19' E 121°41'0 0.0
2017-Nov-15 17:29N 31°19' E 121°41'0 0.0
2017-Nov-15 16:59N 31°19' E 121°41'0 0.0
2017-Nov-15 16:29N 31°19' E 121°41'0 0.0
2017-Nov-15 15:59N 31°19' E 121°41'0 0.0
2017-Nov-15 15:29N 31°19' E 121°41'0 0.0
2017-Nov-15 14:59N 31°19' E 121°41'0 0.0
2017-Nov-15 14:29N 31°19' E 121°41'0 0.0
2017-Nov-15 13:59N 31°19' E 121°41'0 0.0
2017-Nov-15 13:30N 31°19' E 121°41'1 1.6
2017-Nov-15 13:00N 31°20' E 121°42'5 9.1
2017-Nov-15 12:30N 31°18' E 121°47'611.0
2017-Nov-15 12:00N 31°16' E 121°53'510.9
2017-Nov-15 11:30N 31°15' E 121°59'612.9
2017-Nov-15 11:00N 31°14' E 122°06'810.2
2017-Nov-15 10:13N 31°09' E 122°14'210.0
2017-Nov-15 09:58N 31°07' E 122°16'40114.9
2017-Nov-14 07:03N 37°48' E 121°55'119.2
2017-Nov-14 07:00N 37°47' E 121°54'918.8
2017-Nov-14 06:31N 37°46' E 121°42'917.9
2017-Nov-14 06:00N 37°42' E 121°32'713.5
2017-Nov-14 05:30N 37°36' E 121°27'4 7.0
2017-Nov-14 04:55N 37°34' E 121°23'0 0.0
2017-Nov-14 04:28N 37°34' E 121°23'0 0.0
2017-Nov-14 03:58N 37°34' E 121°23'0 0.0
2017-Nov-14 03:22N 37°34' E 121°23'0 0.0
2017-Nov-14 02:55N 37°34' E 121°23'0 0.0
2017-Nov-14 02:28N 37°34' E 121°23'0 0.0
2017-Nov-14 01:58N 37°34' E 121°23'0 0.0
2017-Nov-14 01:28N 37°34' E 121°23'0 0.0
2017-Nov-14 00:58N 37°34' E 121°23'0 0.0
2017-Nov-14 00:16N 37°34' E 121°23'0 0.0
2017-Nov-13 23:58N 37°34' E 121°23'0 0.0
2017-Nov-13 23:28N 37°34' E 121°23'0 0.0
2017-Nov-13 22:58N 37°34' E 121°23'0 0.0
2017-Nov-13 22:28N 37°34' E 121°23'0 0.0
2017-Nov-13 21:58N 37°34' E 121°23'0 0.0
2017-Nov-13 02:00N 37°34' E 121°23'2 3.3
2017-Nov-13 01:30N 37°35' E 121°25'3 5.4
2017-Nov-13 00:59N 37°36' E 121°27'4 7.3
2017-Nov-13 00:30N 37°40' E 121°29'2 4.1
2017-Nov-13 00:00N 37°41' E 121°31'0 0.5
2017-Nov-12 23:30N 37°42' E 121°30'0 0.8
2017-Nov-12 23:00N 37°41' E 121°31'0 0.3
2017-Nov-12 22:30N 37°42' E 121°31'2 3.8
2017-Nov-12 22:00N 37°43' E 121°33'3 5.0
2017-Nov-12 21:30N 37°44' E 121°36'3 6.9
2017-Nov-12 21:00N 37°45' E 121°40'4 7.5
2017-Nov-12 20:30N 37°47' E 121°44'4 8.7
2017-Nov-12 20:00N 37°48' E 121°49'5 9.1
2017-Nov-12 19:30N 37°50' E 121°54'711.0
2017-Nov-12 18:53N 37°52' E 122°02'511.5
2017-Nov-12 18:27N 37°54' E 122°08'  

Dump ship's entire track history